createdAt,value
2023-02-11T00:00:42.324Z,97115.60
2023-02-11T00:03:09.285Z,97121.00
2023-02-11T00:05:35.957Z,97115.40
2023-02-11T00:08:02.619Z,97108.20
2023-02-11T00:10:29.216Z,97108.60
2023-02-11T00:12:56.196Z,97109.40
2023-02-11T00:15:22.922Z,97109.40
2023-02-11T00:17:49.562Z,97115.40
2023-02-11T00:20:16.362Z,97120.20
2023-02-11T00:22:43.858Z,97117.80
2023-02-11T00:25:10.488Z,97119.00
2023-02-11T00:27:37.830Z,97119.60
2023-02-11T00:30:06.805Z,97118.80
2023-02-11T00:32:33.467Z,97115.00
2023-02-11T00:35:00.121Z,97111.20
2023-02-11T00:37:26.935Z,97110.80
2023-02-11T00:39:53.783Z,97106.20
2023-02-11T00:42:20.560Z,97107.80
2023-02-11T00:44:47.274Z,97103.00
2023-02-11T00:47:17.143Z,97101.80
2023-02-11T00:49:43.922Z,97097.40
2023-02-11T00:52:10.674Z,97091.60
2023-02-11T00:54:37.298Z,97089.40
2023-02-11T00:57:04.084Z,97091.40
2023-02-11T00:59:30.689Z,97092.00
2023-02-11T01:01:57.671Z,97085.80
2023-02-11T01:04:24.292Z,97083.60
2023-02-11T01:06:52.051Z,97089.40
2023-02-11T01:09:19.702Z,97084.80
2023-02-11T01:11:46.280Z,97091.40
2023-02-11T01:14:13.432Z,97084.60
2023-02-11T01:16:40.457Z,97082.80
2023-02-11T01:19:07.094Z,97080.60
2023-02-11T01:21:33.835Z,97079.80
2023-02-11T01:24:00.587Z,97087.40
2023-02-11T01:26:27.332Z,97086.00
2023-02-11T01:28:54.038Z,97085.20
2023-02-11T01:31:20.864Z,97076.00
2023-02-11T01:33:47.532Z,97073.60
2023-02-11T01:36:14.065Z,97073.60
2023-02-11T01:38:41.073Z,97073.20
2023-02-11T01:41:12.667Z,97077.60
2023-02-11T01:43:44.859Z,97075.00
2023-02-11T01:46:23.805Z,97077.80
2023-02-11T01:49:12.073Z,97079.20
2023-02-11T01:51:57.172Z,97082.40
2023-02-11T01:54:48.724Z,97083.20
2023-02-11T01:57:25.349Z,97079.60
2023-02-11T02:00:34.470Z,97083.40
2023-02-11T02:03:08.626Z,97076.60
2023-02-11T02:06:08.240Z,97076.60
2023-02-11T02:08:51.679Z,97083.20
2023-02-11T02:11:18.397Z,97088.00
2023-02-11T02:13:45.150Z,97073.40
2023-02-11T02:16:15.927Z,97072.80
2023-02-11T02:19:05.660Z,97067.20
2023-02-11T02:22:11.029Z,97067.80
2023-02-11T02:25:33.746Z,97062.40
2023-02-11T02:28:22.323Z,97054.20
2023-02-11T02:31:14.564Z,97052.80
2023-02-11T02:33:53.870Z,97048.40
2023-02-11T02:36:50.220Z,97040.80
2023-02-11T02:39:32.213Z,97034.00
2023-02-11T02:41:59.734Z,97031.80
2023-02-11T02:44:26.485Z,97028.40
2023-02-11T02:46:53.164Z,97030.80
2023-02-11T02:49:19.725Z,97026.80
2023-02-11T02:52:16.341Z,97032.00
2023-02-11T02:55:27.464Z,97027.40
2023-02-11T02:58:24.385Z,97026.80
2023-02-11T03:01:33.166Z,97013.60
2023-02-11T03:04:13.752Z,97004.80
2023-02-11T03:07:01.801Z,97007.80
2023-02-11T03:09:38.617Z,97008.80
2023-02-11T03:12:07.840Z,96999.80
2023-02-11T03:14:36.863Z,96996.20
2023-02-11T03:17:06.199Z,96989.80
2023-02-11T03:19:48.482Z,96988.60
2023-02-11T03:22:30.357Z,96984.40
2023-02-11T03:24:57.037Z,96982.20
2023-02-11T03:27:51.713Z,96977.00
2023-02-11T03:30:30.480Z,96975.40
2023-02-11T03:33:13.834Z,96980.20
2023-02-11T03:36:01.269Z,96974.00
2023-02-11T03:38:45.164Z,96976.40
2023-02-11T03:41:16.162Z,96977.40
2023-02-11T03:43:52.044Z,96981.20
2023-02-11T03:46:24.854Z,96990.20
2023-02-11T03:49:02.684Z,96981.40
2023-02-11T03:51:32.584Z,96978.20
2023-02-11T03:54:04.223Z,96978.00
2023-02-11T03:56:50.004Z,96982.00
2023-02-11T03:59:16.954Z,96987.20
2023-02-11T04:01:43.553Z,96990.80
2023-02-11T04:04:10.530Z,96994.40
2023-02-11T04:06:37.448Z,96988.60
2023-02-11T04:09:04.845Z,96987.00
2023-02-11T04:11:31.501Z,96983.60
2023-02-11T04:13:58.410Z,96989.40
2023-02-11T04:16:26.899Z,96993.60
2023-02-11T04:18:53.596Z,96994.20
2023-02-11T04:21:20.255Z,96993.00
2023-02-11T04:23:46.909Z,97005.40
2023-02-11T04:26:13.799Z,97008.20
2023-02-11T04:28:40.607Z,97010.00
2023-02-11T04:31:07.187Z,97005.80
2023-02-11T04:33:33.827Z,97000.00
2023-02-11T04:36:00.381Z,97005.80
2023-02-11T04:38:26.980Z,97014.80
2023-02-11T04:40:53.550Z,97014.20
2023-02-11T04:43:20.146Z,97014.20
2023-02-11T04:45:46.771Z,97024.20
2023-02-11T04:48:13.473Z,97026.40
2023-02-11T04:50:40.112Z,97026.00
2023-02-11T04:53:06.673Z,97031.60
2023-02-11T04:55:33.291Z,97035.80
2023-02-11T04:57:59.934Z,97035.80
2023-02-11T05:00:26.612Z,97036.00
2023-02-11T05:02:53.238Z,97044.20
2023-02-11T05:05:19.899Z,97045.00
2023-02-11T05:07:46.758Z,97041.80
2023-02-11T05:10:13.353Z,97039.40
2023-02-11T05:12:39.901Z,97036.40
2023-02-11T05:15:06.926Z,97035.80
2023-02-11T05:17:33.578Z,97038.20
2023-02-11T05:20:00.183Z,97036.60
2023-02-11T05:22:26.894Z,97030.60
2023-02-11T05:24:53.655Z,97024.60
2023-02-11T05:27:20.282Z,97024.40
2023-02-11T05:29:46.977Z,97018.00
2023-02-11T05:32:13.604Z,97022.00
2023-02-11T05:34:40.293Z,97014.60
2023-02-11T05:37:06.939Z,97018.00
2023-02-11T05:39:33.647Z,97016.80
2023-02-11T05:42:00.253Z,97019.60
2023-02-11T05:44:26.920Z,97011.40
2023-02-11T05:46:53.494Z,97008.20
2023-02-11T05:49:20.150Z,97008.60
2023-02-11T05:51:46.852Z,97003.40
2023-02-11T05:54:13.696Z,97004.80
2023-02-11T05:56:40.954Z,96999.80
2023-02-11T05:59:08.411Z,97008.60
2023-02-11T06:01:35.550Z,96999.80
2023-02-11T06:04:02.208Z,96999.40
2023-02-11T06:06:28.902Z,96998.20
2023-02-11T06:08:56.467Z,96992.20
2023-02-11T06:11:23.271Z,96985.80
2023-02-11T06:13:50.021Z,96984.00
2023-02-11T06:16:16.619Z,96984.80
2023-02-11T06:18:43.294Z,96991.80
2023-02-11T06:21:11.835Z,96997.80
2023-02-11T06:23:39.184Z,96989.00
2023-02-11T06:26:09.630Z,96986.60
2023-02-11T06:28:38.700Z,96989.80
2023-02-11T06:31:08.145Z,96984.60
2023-02-11T06:33:36.172Z,96992.80
2023-02-11T06:36:04.072Z,96995.00
2023-02-11T06:38:31.156Z,96997.80
2023-02-11T06:40:57.818Z,96993.60
2023-02-11T06:43:24.403Z,97003.80
2023-02-11T06:45:55.817Z,96997.60
2023-02-11T06:48:23.643Z,97000.60
2023-02-11T06:50:50.354Z,96994.00
2023-02-11T06:53:17.046Z,96993.60
2023-02-11T06:55:43.657Z,96992.20
2023-02-11T06:58:10.445Z,96994.00
2023-02-11T07:00:37.595Z,96992.20
2023-02-11T07:03:04.313Z,97001.60
2023-02-11T07:05:30.994Z,97002.80
2023-02-11T07:07:57.621Z,97009.80
2023-02-11T07:10:24.180Z,97016.80
2023-02-11T07:12:50.936Z,97017.60
2023-02-11T07:15:17.799Z,97012.80
2023-02-11T07:17:44.425Z,97013.00
2023-02-11T07:20:12.567Z,97011.00
2023-02-11T07:22:39.093Z,97009.80
2023-02-11T07:25:06.107Z,97002.20
2023-02-11T07:27:32.726Z,96990.40
2023-02-11T07:29:59.419Z,96989.20
2023-02-11T07:32:26.118Z,96980.00
2023-02-11T07:34:52.758Z,96973.20
2023-02-11T07:37:19.765Z,96978.00
2023-02-11T07:39:46.328Z,96980.00
2023-02-11T07:42:12.989Z,96998.60
2023-02-11T07:44:39.631Z,96996.00
2023-02-11T07:47:06.291Z,96994.40
2023-02-11T07:49:33.113Z,96986.00
2023-02-11T07:51:59.757Z,96984.20
2023-02-11T07:54:26.417Z,96986.20
2023-02-11T07:56:53.071Z,96985.80
2023-02-11T07:59:19.842Z,96987.60
2023-02-11T08:01:46.502Z,96988.60
2023-02-11T08:04:13.210Z,96980.20
2023-02-11T08:06:43.291Z,96972.80
2023-02-11T08:09:16.591Z,96958.00
2023-02-11T08:11:43.845Z,96955.20
2023-02-11T08:14:11.670Z,96954.20
2023-02-11T08:16:39.384Z,96960.00
2023-02-11T08:19:12.452Z,96962.60
2023-02-11T08:21:40.058Z,96953.60
2023-02-11T08:24:07.201Z,96943.60
2023-02-11T08:26:35.371Z,96942.20
2023-02-11T08:29:08.432Z,96949.40
2023-02-11T08:31:38.628Z,96944.00
2023-02-11T08:34:06.266Z,96939.00
2023-02-11T08:36:36.719Z,96944.20
2023-02-11T08:39:18.670Z,96945.60
2023-02-11T08:41:50.424Z,96948.00
2023-02-11T08:44:19.147Z,96954.80
2023-02-11T08:46:45.893Z,96968.40
2023-02-11T08:49:12.514Z,96974.60
2023-02-11T08:51:39.133Z,96976.20
2023-02-11T08:54:09.529Z,96975.80
2023-02-11T08:56:38.458Z,96964.60
2023-02-11T08:59:06.181Z,96971.80
2023-02-11T09:01:33.046Z,96969.00
2023-02-11T09:03:59.711Z,96965.00
2023-02-11T09:06:27.330Z,96958.00
2023-02-11T09:08:56.876Z,96950.00
2023-02-11T09:11:34.169Z,96951.40
2023-02-11T09:14:02.489Z,96951.00
2023-02-11T09:16:34.089Z,96947.20
2023-02-11T09:19:04.138Z,96946.20
2023-02-11T09:21:31.824Z,96951.60
2023-02-11T09:23:58.453Z,96949.60
2023-02-11T09:26:31.740Z,96949.00
2023-02-11T09:29:00.051Z,96946.40
2023-02-11T09:31:29.585Z,96939.20
2023-02-11T09:34:00.513Z,96940.20
2023-02-11T09:36:32.041Z,96943.40
2023-02-11T09:39:01.968Z,96936.60
2023-02-11T09:42:06.493Z,96933.20
2023-02-11T09:44:36.767Z,96932.80
2023-02-11T09:47:27.702Z,96933.20
2023-02-11T09:50:22.884Z,96947.00
2023-02-11T09:53:00.983Z,96949.00
2023-02-11T09:55:39.699Z,96949.40
2023-02-11T09:58:22.970Z,96942.20
2023-02-11T10:01:36.081Z,96927.20
2023-02-11T10:04:29.740Z,96909.00
2023-02-11T10:07:25.965Z,96895.60
2023-02-11T10:10:33.596Z,96891.00
2023-02-11T10:13:31.125Z,96890.60
2023-02-11T10:16:20.642Z,96894.60
2023-02-11T10:19:11.325Z,96888.60
2023-02-11T10:22:03.648Z,96884.60
2023-02-11T10:24:31.620Z,96885.40
2023-02-11T10:26:58.238Z,96895.40
2023-02-11T10:29:38.867Z,96899.40
2023-02-11T10:32:22.011Z,96911.60
2023-02-11T10:34:48.679Z,96905.80
2023-02-11T10:37:15.286Z,96904.20
2023-02-11T10:39:42.179Z,96898.80
2023-02-11T10:42:13.979Z,96906.40
2023-02-11T10:44:59.840Z,96894.00
2023-02-11T10:47:36.752Z,96901.40
2023-02-11T10:50:19.623Z,96894.20
2023-02-11T10:52:46.262Z,96887.80
2023-02-11T10:55:24.716Z,96890.60
2023-02-11T10:57:58.324Z,96893.40
2023-02-11T11:00:41.142Z,96889.60
2023-02-11T11:03:25.266Z,96886.40
2023-02-11T11:06:03.185Z,96889.80
2023-02-11T11:08:49.771Z,96882.60
2023-02-11T11:11:20.306Z,96877.60
2023-02-11T11:13:52.954Z,96877.00
2023-02-11T11:16:30.511Z,96870.60
2023-02-11T11:19:25.255Z,96869.80
2023-02-11T11:21:55.672Z,96871.40
2023-02-11T11:24:38.905Z,96873.20
2023-02-11T11:27:06.082Z,96866.60
2023-02-11T11:29:46.468Z,96868.80
2023-02-11T11:32:22.691Z,96863.80
2023-02-11T11:35:00.767Z,96862.00
2023-02-11T11:37:35.935Z,96857.60
2023-02-11T11:40:11.112Z,96855.60
2023-02-11T11:42:40.144Z,96850.20
2023-02-11T11:45:10.236Z,96842.00
2023-02-11T11:47:53.903Z,96848.40
2023-02-11T11:50:44.453Z,96845.40
2023-02-11T11:53:19.135Z,96853.20
2023-02-11T11:55:53.099Z,96861.00
2023-02-11T11:58:23.137Z,96865.40
2023-02-11T12:01:34.111Z,96864.40
2023-02-11T12:04:57.792Z,96870.00
2023-02-11T12:07:56.155Z,96860.20
2023-02-11T12:10:57.793Z,96861.80
2023-02-11T12:13:41.262Z,96849.60
2023-02-11T12:16:30.063Z,96839.00
2023-02-11T12:19:27.873Z,96841.20
2023-02-11T12:22:12.498Z,96843.00
2023-02-11T12:25:09.557Z,96853.00
2023-02-11T12:28:01.572Z,96854.20
2023-02-11T12:31:02.307Z,96855.60
2023-02-11T12:33:44.882Z,96846.20
2023-02-11T12:36:54.469Z,96842.20
2023-02-11T12:40:12.704Z,96834.40
2023-02-11T12:43:13.743Z,96837.60
2023-02-11T12:45:49.534Z,96831.00
2023-02-11T12:48:36.821Z,96825.00
2023-02-11T12:51:23.871Z,96819.80
2023-02-11T12:54:06.784Z,96819.00
2023-02-11T12:56:39.703Z,96822.00
2023-02-11T12:59:17.445Z,96821.20
2023-02-11T13:01:44.991Z,96818.00
2023-02-11T13:04:27.137Z,96812.80
2023-02-11T13:07:12.603Z,96807.00
2023-02-11T13:09:47.382Z,96800.60
2023-02-11T13:12:33.494Z,96803.40
2023-02-11T13:15:07.637Z,96804.40
2023-02-11T13:17:47.507Z,96805.00
2023-02-11T13:20:45.636Z,96802.80
2023-02-11T13:23:50.275Z,96794.60
2023-02-11T13:26:25.918Z,96785.80
2023-02-11T13:29:26.623Z,96786.80
2023-02-11T13:32:14.963Z,96781.00
2023-02-11T13:34:41.455Z,96771.80
2023-02-11T13:37:22.859Z,96770.00
2023-02-11T13:40:19.060Z,96768.80
2023-02-11T13:43:00.849Z,96776.20
2023-02-11T13:45:44.863Z,96779.80
2023-02-11T13:48:26.901Z,96779.40
2023-02-11T13:51:01.120Z,96774.80
2023-02-11T13:53:29.161Z,96779.40
2023-02-11T13:56:11.514Z,96781.20
2023-02-11T13:58:50.442Z,96780.40
2023-02-11T14:02:14.435Z,96784.40
2023-02-11T14:05:24.791Z,96779.20
2023-02-11T14:08:28.646Z,96781.00
2023-02-11T14:11:12.396Z,96780.40
2023-02-11T14:13:48.235Z,96781.00
2023-02-11T14:16:28.306Z,96779.60
2023-02-11T14:19:02.496Z,96779.00
2023-02-11T14:21:29.427Z,96783.20
2023-02-11T14:24:01.858Z,96779.40
2023-02-11T14:26:51.486Z,96772.20
2023-02-11T14:29:29.903Z,96772.20
2023-02-11T14:32:20.498Z,96777.20
2023-02-11T14:35:10.472Z,96782.60
2023-02-11T14:38:35.861Z,96794.60
2023-02-11T14:41:25.417Z,96796.40
2023-02-11T14:44:04.097Z,96801.00
2023-02-11T14:46:35.169Z,96795.00
2023-02-11T14:49:04.742Z,96791.80
2023-02-11T14:51:36.830Z,96787.40
2023-02-11T14:54:15.140Z,96786.60
2023-02-11T14:56:42.739Z,96789.20
2023-02-11T14:59:21.964Z,96794.60
2023-02-11T15:01:56.365Z,96801.80
2023-02-11T15:04:33.551Z,96797.40
2023-02-11T15:07:10.706Z,96804.60
2023-02-11T15:09:44.596Z,96810.00
2023-02-11T15:12:29.466Z,96810.20
2023-02-11T15:14:59.825Z,96812.80
2023-02-11T15:17:30.702Z,96811.20
2023-02-11T15:20:01.471Z,96810.60
2023-02-11T15:22:33.056Z,96805.40
2023-02-11T15:25:10.624Z,96804.00
2023-02-11T15:27:38.669Z,96808.00
2023-02-11T15:30:20.281Z,96807.00
2023-02-11T15:32:48.366Z,96814.80
2023-02-11T15:35:15.090Z,96813.20
2023-02-11T15:37:41.992Z,96818.20
2023-02-11T15:40:21.655Z,96820.80
2023-02-11T15:43:04.272Z,96826.00
2023-02-11T15:45:42.975Z,96833.40
2023-02-11T15:48:35.480Z,96834.00
2023-02-11T15:51:13.248Z,96835.00
2023-02-11T15:53:43.346Z,96832.40
2023-02-11T15:56:17.213Z,96833.40
2023-02-11T15:58:47.731Z,96837.80
2023-02-11T16:01:15.458Z,96838.40
2023-02-11T16:03:43.654Z,96836.60
2023-02-11T16:06:18.773Z,96830.40
2023-02-11T16:09:08.506Z,96836.60
2023-02-11T16:11:58.883Z,96841.40
2023-02-11T16:14:34.731Z,96842.40
2023-02-11T16:17:24.312Z,96843.80
2023-02-11T16:19:53.681Z,96843.60
2023-02-11T16:22:27.535Z,96843.40
2023-02-11T16:24:57.952Z,96850.60
2023-02-11T16:27:41.947Z,96866.00
2023-02-11T16:30:28.989Z,96871.20
2023-02-11T16:32:55.651Z,96870.60
2023-02-11T16:35:22.332Z,96870.80
2023-02-11T16:37:49.030Z,96872.40
2023-02-11T16:40:15.885Z,96871.00
2023-02-11T16:42:42.655Z,96867.00
2023-02-11T16:45:09.921Z,96869.60
2023-02-11T16:47:40.963Z,96873.40
2023-02-11T16:50:21.200Z,96873.20
2023-02-11T16:52:48.439Z,96882.00
2023-02-11T16:55:15.363Z,96888.20
2023-02-11T16:57:42.290Z,96895.40
2023-02-11T17:00:10.337Z,96896.60
2023-02-11T17:02:38.936Z,96889.20
2023-02-11T17:05:11.794Z,96888.60
2023-02-11T17:07:38.332Z,96890.00
2023-02-11T17:10:18.173Z,96899.80
2023-02-11T17:12:45.208Z,96903.20
2023-02-11T17:15:11.844Z,96903.00
2023-02-11T17:17:38.430Z,96905.40
2023-02-11T17:20:06.771Z,96912.60
2023-02-11T17:22:33.589Z,96925.40
2023-02-11T17:25:00.291Z,96935.00
2023-02-11T17:27:26.920Z,96936.00
2023-02-11T17:29:53.569Z,96937.80
2023-02-11T17:32:20.256Z,96933.80
2023-02-11T17:34:46.915Z,96936.20
2023-02-11T17:37:13.520Z,96938.20
2023-02-11T17:39:40.782Z,96941.00
2023-02-11T17:42:08.790Z,96944.80
2023-02-11T17:44:35.742Z,96951.40
2023-02-11T17:47:02.375Z,96953.20
2023-02-11T17:49:29.047Z,96952.80
2023-02-11T17:51:55.827Z,96950.60
2023-02-11T17:54:22.586Z,96955.80
2023-02-11T17:56:50.889Z,96959.20
2023-02-11T17:59:17.863Z,96955.20
2023-02-11T18:01:44.499Z,96963.80
2023-02-11T18:04:16.621Z,96969.60
2023-02-11T18:06:44.427Z,96974.60
2023-02-11T18:09:12.046Z,96973.20
2023-02-11T18:11:41.247Z,96972.60
2023-02-11T18:14:09.593Z,96976.20
2023-02-11T18:16:39.046Z,96978.20
2023-02-11T18:19:07.509Z,96974.20
2023-02-11T18:21:34.456Z,96974.00
2023-02-11T18:24:06.049Z,96978.80
2023-02-11T18:26:33.408Z,96981.80
2023-02-11T18:29:00.498Z,96978.00
2023-02-11T18:31:28.102Z,96981.60
2023-02-11T18:33:54.890Z,96981.20
2023-02-11T18:36:22.819Z,96979.60
2023-02-11T18:38:49.462Z,96977.40
2023-02-11T18:41:16.192Z,96973.00
2023-02-11T18:43:43.138Z,96971.80
2023-02-11T18:46:13.240Z,96977.00
2023-02-11T18:48:41.333Z,96984.00
2023-02-11T18:51:15.086Z,96987.80
2023-02-11T18:53:43.362Z,96989.20
2023-02-11T18:56:18.204Z,96981.20
2023-02-11T18:58:45.035Z,96981.00
2023-02-11T19:01:26.042Z,96978.80
2023-02-11T19:03:54.568Z,96985.60
2023-02-11T19:06:28.958Z,96987.20
2023-02-11T19:09:00.255Z,96984.20
2023-02-11T19:11:47.604Z,96982.00
2023-02-11T19:14:27.223Z,96980.00
2023-02-11T19:16:57.234Z,96984.60
2023-02-11T19:19:28.506Z,96983.40
2023-02-11T19:21:57.452Z,96980.00
2023-02-11T19:24:25.567Z,96977.00
2023-02-11T19:26:56.911Z,96981.00
2023-02-11T19:29:24.298Z,96980.20
2023-02-11T19:31:51.118Z,96978.80
2023-02-11T19:34:22.005Z,96985.00
2023-02-11T19:36:50.212Z,96983.60
2023-02-11T19:39:18.585Z,96984.80
2023-02-11T19:41:45.359Z,96983.00
2023-02-11T19:44:14.121Z,96982.60
2023-02-11T19:46:40.922Z,96977.20
2023-02-11T19:49:09.942Z,96975.60
2023-02-11T19:51:39.299Z,96977.00
2023-02-11T19:54:08.213Z,96972.80
2023-02-11T19:56:35.390Z,96967.40
2023-02-11T19:59:04.875Z,96972.00
2023-02-11T20:01:31.805Z,96967.40
2023-02-11T20:03:58.597Z,96974.20
2023-02-11T20:06:30.039Z,96971.60
2023-02-11T20:09:01.491Z,96970.60
2023-02-11T20:11:30.899Z,96982.60
2023-02-11T20:13:58.295Z,96981.00
2023-02-11T20:16:46.203Z,96979.20
2023-02-11T20:19:19.003Z,96978.80
2023-02-11T20:21:48.876Z,96976.00
2023-02-11T20:24:17.750Z,96974.40
2023-02-11T20:26:50.314Z,96980.00
2023-02-11T20:29:18.531Z,96989.40
2023-02-11T20:31:45.700Z,96995.00
2023-02-11T20:34:12.646Z,96994.40
2023-02-11T20:36:40.576Z,97000.60
2023-02-11T20:39:08.620Z,97003.40
2023-02-11T20:41:40.022Z,97004.60
2023-02-11T20:44:10.604Z,97009.20
2023-02-11T20:46:41.108Z,97008.20
2023-02-11T20:49:11.851Z,97008.20
2023-02-11T20:51:39.753Z,97009.80
2023-02-11T20:54:06.932Z,97009.00
2023-02-11T20:56:37.567Z,97008.00
2023-02-11T20:59:05.558Z,97008.40
2023-02-11T21:01:37.895Z,97008.20
2023-02-11T21:04:15.780Z,97013.20
2023-02-11T21:06:47.615Z,97014.60
2023-02-11T21:09:21.281Z,97013.60
2023-02-11T21:11:52.643Z,97015.00
2023-02-11T21:14:22.850Z,97010.80
2023-02-11T21:16:51.167Z,97011.20
2023-02-11T21:19:18.175Z,97016.80
2023-02-11T21:21:45.098Z,97021.00
2023-02-11T21:24:12.301Z,97019.40
2023-02-11T21:26:39.262Z,97023.40
2023-02-11T21:29:08.518Z,97020.20
2023-02-11T21:31:36.759Z,97017.80
2023-02-11T21:34:04.516Z,97018.20
2023-02-11T21:36:31.316Z,97023.00
2023-02-11T21:38:58.678Z,97018.00
2023-02-11T21:41:27.412Z,97014.40
2023-02-11T21:43:54.445Z,97015.20
2023-02-11T21:46:22.102Z,97010.80
2023-02-11T21:48:49.362Z,97009.60
2023-02-11T21:51:23.098Z,97009.80
2023-02-11T21:53:57.976Z,97010.80
2023-02-11T21:56:28.662Z,97004.40
2023-02-11T21:58:58.238Z,96999.60
2023-02-11T22:01:32.807Z,96998.60
2023-02-11T22:03:59.631Z,97001.40
2023-02-11T22:06:31.056Z,96998.40
2023-02-11T22:08:59.126Z,97002.40
2023-02-11T22:11:25.666Z,97008.40
2023-02-11T22:13:56.400Z,96998.20
2023-02-11T22:16:24.207Z,97001.80
2023-02-11T22:18:51.583Z,97002.80
2023-02-11T22:21:21.872Z,97003.80
2023-02-11T22:23:49.501Z,97004.40
2023-02-11T22:26:23.193Z,97001.40
2023-02-11T22:28:51.594Z,97007.40
2023-02-11T22:31:31.432Z,97003.00
2023-02-11T22:33:58.990Z,97000.80
2023-02-11T22:36:30.158Z,97000.80
2023-02-11T22:39:03.785Z,97000.80
2023-02-11T22:41:30.537Z,97010.60
2023-02-11T22:43:57.680Z,97014.40
2023-02-11T22:46:24.913Z,97015.80
2023-02-11T22:48:52.132Z,97018.80
2023-02-11T22:51:23.719Z,97020.20
2023-02-11T22:53:57.158Z,97017.00
2023-02-11T22:56:24.515Z,97020.60
2023-02-11T22:58:51.927Z,97020.60
2023-02-11T23:01:19.246Z,97025.80
2023-02-11T23:03:46.235Z,97028.20
2023-02-11T23:06:13.109Z,97029.80
2023-02-11T23:08:42.837Z,97033.80
2023-02-11T23:11:17.561Z,97039.80
2023-02-11T23:13:46.558Z,97046.80
2023-02-11T23:16:34.567Z,97044.40
2023-02-11T23:19:06.610Z,97050.60
2023-02-11T23:21:38.212Z,97047.40
2023-02-11T23:24:12.680Z,97048.60
2023-02-11T23:26:41.484Z,97046.40
2023-02-11T23:29:10.258Z,97051.60
2023-02-11T23:31:40.531Z,97046.40
2023-02-11T23:34:08.760Z,97045.00
2023-02-11T23:36:36.143Z,97048.20
2023-02-11T23:39:03.668Z,97051.40
2023-02-11T23:41:30.414Z,97051.80
2023-02-11T23:43:58.109Z,97053.00
2023-02-11T23:46:26.996Z,97051.60
2023-02-11T23:48:53.858Z,97052.40
2023-02-11T23:51:22.001Z,97052.00
2023-02-11T23:53:49.862Z,97057.40
2023-02-11T23:56:26.431Z,97064.40
2023-02-11T23:58:57.225Z,97080.60
